Weather at Grenoble-Isère Airport

Public forecast

Using degrees Celsius for public forecast. Weather courtesy of forecast.io.

Current aviation weather report (METAR) for Grenoble-Isère Airport

Report is more than 6 hours old.

Retrieved 2022/09/17 19:00 UTC (18 days ago):

LFLS 171900Z AUTO 34014KT CAVOK 12/05 Q1019 BECMG VRB03KT

Aviation forecast (TAF) for Grenoble-Isère Airport

Forecast is more than 12 hours old.

Retrieved 2022/09/17 15:26 UTC (18 days ago):

TAF LFLS 171400Z 1715/1815 34015KT 9999 FEW050 BECMG 1717/1720 VRB03KT BECMG 1808/1810 36010KT